Weather at Naples International Airport

Public forecast

Using degrees Celsius for public forecast. Weather courtesy of forecast.io.

Current aviation weather report (METAR) for Naples International Airport

2024/07/24 14:20 (retrieved 38 minutes ago)

LIRN 241420Z 19008KT 150V220 9999 FEW040 31/23 Q1010 NOSIG

Aviation forecast (TAF) for Naples International Airport

2024/07/24 12:21 (retrieved 3 hours ago)

TAF LIRN 241100Z 2412/2512 24012KT CAVOK BECMG 2419/2421 VRB05KT BECMG 2509/2511 24012KT